Time;durP1;ratioP1;P1;durP2;ratioP2;P2;SDS_P1;SDS_P2;PMS_P1;PMS_P2;Temp;Humidity;BMP_temperature;BMP_pressure;BME280_temperature;BME280_humidity;BME280_pressure;Samples;Min_cycle;Max_cycle;Signal;HPM_P1;HPM_P2
2022/10/16 00:01:38;;;;;;;9.07;1.73;;;13.00;99.90;;;;;;5015251;28;20041;-80
2022/10/16 00:04:04;;;;;;;6.07;1.77;;;13.00;99.90;;;;;;5002087;28;20077;-81
2022/10/16 00:06:31;;;;;;;8.82;1.55;;;13.00;99.90;;;;;;5017960;28;20053;-81
2022/10/16 00:08:57;;;;;;;4.85;1.30;;;13.00;99.90;;;;;;5018525;28;20057;-81
2022/10/16 00:11:25;;;;;;;4.43;1.23;;;13.00;99.90;;;;;;5002104;28;20054;-80
2022/10/16 00:13:54;;;;;;;5.30;1.67;;;12.10;99.90;;;;;;5016412;28;20136;-81
2022/10/16 00:16:22;;;;;;;4.95;1.10;;;13.00;99.90;;;;;;5001821;28;20045;-81
2022/10/16 00:18:48;;;;;;;3.58;1.20;;;13.00;99.90;;;;;;5018556;28;20073;-80
2022/10/16 00:21:17;;;;;;;8.18;1.42;;;13.00;99.90;;;;;;4999124;28;20084;-81
2022/10/16 00:23:43;;;;;;;4.72;1.55;;;13.00;99.90;;;;;;5018189;28;20642;-80
2022/10/16 00:26:11;;;;;;;4.57;1.38;;;13.00;99.90;;;;;;5025303;28;20045;-81
2022/10/16 00:28:38;;;;;;;6.55;1.45;;;12.90;99.90;;;;;;5025549;28;20045;-81
2022/10/16 00:31:09;;;;;;;4.40;1.40;;;12.90;99.90;;;;;;5017247;28;20054;-82
2022/10/16 00:33:36;;;;;;;6.00;1.33;;;12.90;99.90;;;;;;5023986;28;20099;-80
2022/10/16 00:36:03;;;;;;;6.15;1.10;;;12.90;99.90;;;;;;5008632;28;20053;-81
2022/10/16 00:38:29;;;;;;;4.03;1.15;;;12.90;99.90;;;;;;5023831;28;20124;-82
2022/10/16 00:40:56;;;;;;;6.18;1.20;;;12.80;99.90;;;;;;5017760;28;20049;-83
2022/10/16 00:43:41;;;;;;;5.65;1.23;;;12.80;99.90;;;;;;5007326;28;20125;-81
2022/10/16 00:46:27;;;;;;;4.77;1.20;;;12.80;99.90;;;;;;5034044;28;20104;-81
2022/10/16 00:49:01;;;;;;;6.63;1.60;;;12.80;99.90;;;;;;5017512;28;20061;-80
2022/10/16 00:51:38;;;;;;;5.28;1.40;;;12.80;99.90;;;;;;5016059;28;20072;-81
2022/10/16 00:54:08;;;;;;;3.78;1.40;;;12.80;99.90;;;;;;5025144;28;20046;-80
2022/10/16 00:56:34;;;;;;;3.78;1.25;;;12.80;99.90;;;;;;5018028;28;20125;-81
2022/10/16 00:59:07;;;;;;;4.40;1.20;;;12.80;99.90;;;;;;4999751;28;20462;-81
2022/10/16 01:01:33;;;;;;;4.15;1.30;;;12.80;99.90;;;;;;5018247;28;20049;-81
2022/10/16 01:03:58;;;;;;;6.63;1.42;;;12.80;99.90;;;;;;5007782;28;20498;-81
2022/10/16 01:06:38;;;;;;;5.32;1.15;;;12.90;99.90;;;;;;5017341;28;20136;-81
2022/10/16 01:09:11;;;;;;;5.13;1.33;;;12.90;99.90;;;;;;5017058;28;20053;-81
2022/10/16 01:12:05;;;;;;;5.07;1.25;;;12.90;99.90;;;;;;5009483;28;20104;-81
2022/10/16 01:14:45;;;;;;;4.25;0.95;;;12.90;99.90;;;;;;5001168;28;20526;-81
2022/10/16 01:17:38;;;;;;;5.45;1.65;;;13.00;99.90;;;;;;5017869;28;20053;-82
2022/10/16 01:20:21;;;;;;;5.05;1.40;;;13.00;99.90;;;;;;5015927;28;20053;-81
2022/10/16 01:22:47;;;;;;;5.50;1.35;;;13.00;99.90;;;;;;5018856;28;20041;-81
2022/10/16 01:25:25;;;;;;;6.65;1.38;;;13.00;99.90;;;;;;5016493;28;20107;-82
2022/10/16 01:27:51;;;;;;;3.97;0.90;;;13.00;99.90;;;;;;5017406;28;20104;-82
2022/10/16 01:30:18;;;;;;;5.75;1.40;;;13.00;99.90;;;;;;5032678;28;20076;-82
2022/10/16 01:32:59;;;;;;;2.15;1.00;;;13.00;99.90;;;;;;4999956;28;20069;-82
2022/10/16 01:36:00;;;;;;;5.18;1.30;;;13.00;99.90;;;;;;5025583;28;20054;-81
2022/10/16 01:38:33;;;;;;;6.07;1.52;;;13.10;99.90;;;;;;5007220;28;20065;-81
2022/10/16 01:41:03;;;;;;;5.95;1.40;;;13.10;99.90;;;;;;5000492;28;20131;-82
2022/10/16 01:43:35;;;;;;;5.03;1.20;;;13.10;99.90;;;;;;5016828;28;20057;-82
2022/10/16 01:46:02;;;;;;;6.10;1.48;;;13.10;99.90;;;;;;5023002;28;20104;-81
2022/10/16 01:48:31;;;;;;;6.25;1.83;;;13.10;99.90;;;;;;5017251;28;20859;-81
2022/10/16 01:51:05;;;;;;;6.55;1.45;;;13.20;99.90;;;;;;5017573;28;20049;-81
2022/10/16 01:53:32;;;;;;;9.52;2.03;;;13.20;99.90;;;;;;5019956;28;20387;-81
2022/10/16 01:55:59;;;;;;;5.63;1.55;;;13.20;99.90;;;;;;5021134;28;20046;-81
2022/10/16 01:58:26;;;;;;;8.63;1.30;;;13.20;99.90;;;;;;5020538;28;20040;-81
2022/10/16 02:00:54;;;;;;;4.07;1.40;;;13.20;99.90;;;;;;4989111;28;20100;-81
2022/10/16 02:03:20;;;;;;;8.35;1.48;;;13.20;99.90;;;;;;5020076;28;20372;-82
2022/10/16 02:05:56;;;;;;;3.78;1.20;;;13.20;99.90;;;;;;5010072;28;20498;-81
2022/10/16 02:08:24;;;;;;;5.30;1.52;;;13.20;99.90;;;;;;5020628;28;20117;-81
2022/10/16 02:10:50;;;;;;;3.03;1.20;;;13.10;99.90;;;;;;5004105;28;20056;-81
2022/10/16 02:13:37;;;;;;;4.18;1.40;;;13.10;99.90;;;;;;5021236;28;20552;-80
2022/10/16 02:16:03;;;;;;;6.22;1.42;;;13.00;99.90;;;;;;5017600;28;20581;-81
2022/10/16 02:18:30;;;;;;;8.02;1.45;;;13.00;99.90;;;;;;5003895;28;20137;-81
2022/10/16 02:21:02;;;;;;;5.25;1.55;;;13.00;99.90;;;;;;5018315;28;20060;-81
2022/10/16 02:23:57;;;;;;;6.25;1.80;;;13.00;99.90;;;;;;5009049;28;20072;-81
2022/10/16 02:26:51;;;;;;;7.53;1.60;;;13.00;99.90;;;;;;5015467;28;20104;-81
2022/10/16 02:29:21;;;;;;;5.20;1.70;;;13.00;99.90;;;;;;5026937;28;20052;-81
2022/10/16 02:31:53;;;;;;;6.68;1.23;;;13.00;99.90;;;;;;5018855;28;20068;-81
2022/10/16 02:34:22;;;;;;;5.53;1.55;;;12.90;99.90;;;;;;5011325;28;20053;-81
2022/10/16 02:36:48;;;;;;;5.10;1.45;;;12.90;99.90;;;;;;5025514;28;20081;-81
2022/10/16 02:39:15;;;;;;;5.57;1.42;;;12.90;99.90;;;;;;5003068;28;20057;-80
2022/10/16 02:41:42;;;;;;;5.80;1.92;;;12.90;99.90;;;;;;4977586;28;20049;-81
2022/10/16 02:44:07;;;;;;;5.10;1.67;;;12.80;99.90;;;;;;5019633;28;20490;-80
2022/10/16 02:46:33;;;;;;;4.03;1.50;;;12.80;99.90;;;;;;5018923;28;20060;-81
2022/10/16 02:48:59;;;;;;;4.03;1.63;;;12.80;99.90;;;;;;5003696;28;20453;-81
2022/10/16 02:51:25;;;;;;;4.15;1.60;;;12.80;99.90;;;;;;4993013;28;20060;-81
2022/10/16 02:53:52;;;;;;;4.95;1.77;;;12.80;99.90;;;;;;4986648;28;20041;-81
2022/10/16 02:56:18;;;;;;;3.10;1.40;;;12.80;99.90;;;;;;5020048;28;20165;-81
2022/10/16 02:58:44;;;;;;;4.00;1.52;;;12.80;99.90;;;;;;5019020;28;20133;-82
2022/10/16 03:01:12;;;;;;;6.30;1.83;;;12.80;99.90;;;;;;5000447;28;20153;-82
2022/10/16 03:03:38;;;;;;;4.65;1.80;;;12.80;99.90;;;;;;5018887;28;20058;-81
2022/10/16 03:06:04;;;;;;;9.15;1.60;;;12.80;99.90;;;;;;5003463;28;20038;-81
2022/10/16 03:08:29;;;;;;;3.70;1.92;;;12.80;99.90;;;;;;5019173;28;20049;-82
2022/10/16 03:10:55;;;;;;;5.20;1.63;;;12.80;99.90;;;;;;5002143;28;20046;-81
2022/10/16 03:13:21;;;;;;;3.92;1.65;;;12.80;99.90;;;;;;5002869;28;20038;-82
2022/10/16 03:15:47;;;;;;;5.40;1.75;;;12.80;99.90;;;;;;5017946;28;20049;-81
2022/10/16 03:18:13;;;;;;;3.47;1.50;;;12.70;99.90;;;;;;5003644;28;20100;-81
2022/10/16 03:20:38;;;;;;;4.00;1.80;;;12.70;99.90;;;;;;5018054;28;20460;-81
2022/10/16 03:23:04;;;;;;;4.05;1.35;;;12.80;99.90;;;;;;5002539;28;20069;-81
2022/10/16 03:25:32;;;;;;;3.33;1.55;;;12.80;99.90;;;;;;4998516;28;20475;-82
2022/10/16 03:27:58;;;;;;;4.22;1.75;;;12.70;99.90;;;;;;5004155;28;20119;-82
2022/10/16 03:30:24;;;;;;;2.88;1.50;;;12.80;99.90;;;;;;5018468;28;20045;-82
2022/10/16 03:32:53;;;;;;;3.83;1.55;;;12.70;99.90;;;;;;4985349;28;20061;-81
2022/10/16 03:35:20;;;;;;;3.72;1.58;;;12.70;99.90;;;;;;5002209;28;20426;-81
2022/10/16 03:37:45;;;;;;;2.67;1.45;;;12.70;99.90;;;;;;5001947;28;20120;-81
2022/10/16 03:40:11;;;;;;;3.83;1.65;;;12.70;99.90;;;;;;5008284;28;21966;-81
2022/10/16 03:42:37;;;;;;;4.03;1.63;;;12.70;99.90;;;;;;5002317;28;20056;-80
2022/10/16 03:45:04;;;;;;;4.65;1.45;;;12.70;99.90;;;;;;5009444;28;20489;-81
2022/10/16 03:47:32;;;;;;;3.75;1.20;;;12.60;99.90;;;;;;4993010;28;20041;-81
2022/10/16 03:49:58;;;;;;;4.28;1.23;;;12.60;99.90;;;;;;5003385;28;20080;-81
2022/10/16 03:52:24;;;;;;;6.22;1.08;;;12.70;99.90;;;;;;5018154;28;20049;-81
2022/10/16 03:54:50;;;;;;;3.65;1.17;;;12.70;99.90;;;;;;5017792;28;20060;-81
2022/10/16 03:57:15;;;;;;;3.55;1.38;;;12.70;99.90;;;;;;4984925;28;20077;-81
2022/10/16 03:59:41;;;;;;;7.15;1.80;;;12.70;99.90;;;;;;5002284;28;20052;-81
2022/10/16 04:02:07;;;;;;;7.13;1.60;;;11.70;99.90;;;;;;5002921;28;20484;-81
2022/10/16 04:04:32;;;;;;;10.00;1.30;;;12.70;99.90;;;;;;5002975;28;20041;-81
2022/10/16 04:06:58;;;;;;;3.97;1.50;;;11.50;99.90;;;;;;5000951;28;20479;-81
2022/10/16 04:09:24;;;;;;;5.13;1.40;;;12.70;99.90;;;;;;5010196;28;20041;-81
2022/10/16 04:11:49;;;;;;;4.00;1.40;;;12.80;99.90;;;;;;5000932;28;20514;-81
2022/10/16 04:14:15;;;;;;;3.88;1.33;;;12.80;99.90;;;;;;5016813;28;20213;-81
2022/10/16 04:16:41;;;;;;;4.53;1.40;;;12.70;99.90;;;;;;5017226;28;20049;-81
2022/10/16 04:19:06;;;;;;;3.65;1.30;;;12.70;99.90;;;;;;5015784;28;20169;-80
2022/10/16 04:21:32;;;;;;;4.80;2.30;;;12.70;99.90;;;;;;4992329;28;20491;-81
2022/10/16 04:23:58;;;;;;;3.42;1.38;;;12.70;99.90;;;;;;5017387;28;20078;-81
2022/10/16 04:26:23;;;;;;;3.53;1.40;;;12.70;99.90;;;;;;4993016;28;20136;-81
2022/10/16 04:28:49;;;;;;;4.97;1.40;;;12.80;99.90;;;;;;5017979;28;20072;-80
2022/10/16 04:31:15;;;;;;;4.90;1.50;;;13.80;99.90;;;;;;5001384;28;20046;-80
2022/10/16 04:33:42;;;;;;;5.47;1.40;;;12.80;99.90;;;;;;5017439;28;20089;-81
2022/10/16 04:36:08;;;;;;;4.65;1.27;;;12.70;99.90;;;;;;5008628;28;20053;-81
2022/10/16 04:38:34;;;;;;;2.97;1.35;;;12.70;99.90;;;;;;5025596;28;20046;-81
2022/10/16 04:41:00;;;;;;;4.47;1.55;;;12.70;99.90;;;;;;4984031;28;20057;-81
2022/10/16 04:43:26;;;;;;;6.45;1.38;;;12.70;99.90;;;;;;5024089;28;20107;-81
2022/10/16 04:45:52;;;;;;;2.47;1.30;;;12.60;99.90;;;;;;5000723;28;20049;-81
2022/10/16 04:48:18;;;;;;;2.78;1.20;;;12.70;99.90;;;;;;5002633;28;20050;-81
2022/10/16 04:50:44;;;;;;;5.07;1.40;;;12.60;99.90;;;;;;5001175;28;20060;-80
2022/10/16 04:53:10;;;;;;;5.30;1.33;;;12.70;99.90;;;;;;5001647;28;20414;-80
2022/10/16 04:55:36;;;;;;;5.25;1.73;;;12.60;99.90;;;;;;5016671;28;20120;-80
2022/10/16 04:58:01;;;;;;;6.65;1.50;;;12.70;99.90;;;;;;5002115;28;20492;-80
2022/10/16 05:00:27;;;;;;;4.78;1.20;;;12.70;99.90;;;;;;5016705;28;20049;-81
2022/10/16 05:02:53;;;;;;;5.65;1.38;;;12.70;99.90;;;;;;5017712;28;20164;-80
2022/10/16 05:05:22;;;;;;;5.65;1.30;;;12.70;99.90;;;;;;4985051;28;20042;-80
2022/10/16 05:07:49;;;;;;;3.40;1.13;;;12.70;99.90;;;;;;5001328;28;20047;-80
2022/10/16 05:10:15;;;;;;;5.50;1.30;;;12.70;99.90;;;;;;4996186;28;20076;-81
2022/10/16 05:12:41;;;;;;;8.38;1.42;;;12.70;99.90;;;;;;5003351;28;20123;-81
2022/10/16 05:15:07;;;;;;;4.95;1.20;;;12.70;99.90;;;;;;5001949;28;20049;-81
2022/10/16 05:17:33;;;;;;;5.60;1.40;;;12.70;99.90;;;;;;5019582;28;20053;-81
2022/10/16 05:19:59;;;;;;;4.05;1.35;;;12.70;99.90;;;;;;5001217;28;20046;-81
2022/10/16 05:22:25;;;;;;;4.40;1.55;;;12.70;99.90;;;;;;4987379;28;20132;-81
2022/10/16 05:24:50;;;;;;;5.72;1.77;;;12.60;99.90;;;;;;5001327;28;20124;-81
2022/10/16 05:27:19;;;;;;;2.85;1.27;;;12.70;99.90;;;;;;5026049;28;20054;-83
2022/10/16 05:29:49;;;;;;;5.13;1.42;;;12.60;99.90;;;;;;4986670;28;20412;-80
2022/10/16 05:32:16;;;;;;;3.58;1.50;;;12.70;99.90;;;;;;5006663;28;20143;-80
2022/10/16 05:34:42;;;;;;;4.82;1.48;;;12.60;99.90;;;;;;5038499;28;20061;-81
2022/10/16 05:37:08;;;;;;;7.05;1.65;;;12.70;99.90;;;;;;5016072;28;20053;-80
2022/10/16 05:39:34;;;;;;;5.38;2.15;;;12.60;99.90;;;;;;4977017;28;20045;-80
2022/10/16 05:42:00;;;;;;;4.15;1.88;;;12.60;99.90;;;;;;5021457;28;20053;-80
2022/10/16 05:44:25;;;;;;;4.50;2.08;;;12.60;99.90;;;;;;5003668;28;20041;-80
2022/10/16 05:46:51;;;;;;;4.88;2.08;;;12.60;99.90;;;;;;5002112;28;20061;-80
2022/10/16 05:49:17;;;;;;;4.78;2.00;;;12.50;99.90;;;;;;5020900;28;20056;-80
2022/10/16 05:51:42;;;;;;;5.97;2.03;;;12.60;99.90;;;;;;5005673;28;20050;-80
2022/10/16 05:54:08;;;;;;;3.70;1.98;;;12.60;99.90;;;;;;5022789;28;20071;-79
2022/10/16 05:56:34;;;;;;;4.63;2.00;;;12.50;99.90;;;;;;5022379;28;20060;-80
2022/10/16 05:59:00;;;;;;;6.20;2.13;;;12.50;99.90;;;;;;5004486;28;20042;-81
2022/10/16 06:01:26;;;;;;;6.15;1.90;;;12.50;99.90;;;;;;4987882;28;20072;-80
2022/10/16 06:03:52;;;;;;;4.82;2.00;;;12.50;99.90;;;;;;5003422;28;20052;-81
2022/10/16 06:06:22;;;;;;;5.07;1.67;;;12.40;99.90;;;;;;5012707;28;20045;-81
2022/10/16 06:08:49;;;;;;;4.50;1.60;;;12.40;99.90;;;;;;5019731;28;20056;-81
2022/10/16 06:11:20;;;;;;;4.30;2.05;;;12.40;99.90;;;;;;5020752;28;20479;-82
2022/10/16 06:13:53;;;;;;;6.63;1.80;;;12.40;99.90;;;;;;5011764;28;20041;-80
2022/10/16 06:16:19;;;;;;;4.60;1.67;;;12.40;99.90;;;;;;5028126;28;20041;-80
2022/10/16 06:18:46;;;;;;;5.35;1.95;;;12.40;99.90;;;;;;5003015;28;20042;-80
2022/10/16 06:21:19;;;;;;;7.57;2.00;;;12.40;99.90;;;;;;5004541;28;20049;-81
2022/10/16 06:23:48;;;;;;;6.25;1.98;;;12.40;99.90;;;;;;5027612;28;20544;-81
2022/10/16 06:26:16;;;;;;;5.97;2.20;;;12.40;99.90;;;;;;5002986;28;20057;-81
2022/10/16 06:28:42;;;;;;;6.15;1.92;;;12.40;99.90;;;;;;5003504;28;20073;-81
2022/10/16 06:31:09;;;;;;;5.15;1.90;;;12.40;99.90;;;;;;5010520;28;20073;-80
2022/10/16 06:33:36;;;;;;;5.78;1.88;;;12.50;99.90;;;;;;5003873;28;20049;-80
2022/10/16 06:36:05;;;;;;;8.13;2.03;;;12.50;99.90;;;;;;5004080;28;20085;-81
2022/10/16 06:38:31;;;;;;;7.43;1.85;;;12.40;99.90;;;;;;5005635;28;20045;-80
2022/10/16 06:40:57;;;;;;;9.27;2.72;;;12.40;99.90;;;;;;5003766;28;20052;-80
2022/10/16 06:43:23;;;;;;;5.32;1.60;;;12.50;99.90;;;;;;5004476;28;20053;-80
2022/10/16 06:45:56;;;;;;;6.15;1.88;;;12.50;99.90;;;;;;5021487;28;20050;-80
2022/10/16 06:48:23;;;;;;;6.85;1.38;;;12.50;99.90;;;;;;5020282;28;20499;-81
2022/10/16 06:51:16;;;;;;;5.85;1.70;;;12.50;99.90;;;;;;5020452;28;20083;-82
2022/10/16 06:53:44;;;;;;;8.98;2.03;;;12.60;99.90;;;;;;5002242;28;20068;-80
2022/10/16 06:56:19;;;;;;;6.53;1.85;;;12.60;99.90;;;;;;5009641;28;20042;-82
2022/10/16 06:58:46;;;;;;;8.00;2.22;;;12.60;99.90;;;;;;5043536;28;20573;-81
2022/10/16 07:01:13;;;;;;;5.18;1.50;;;12.60;99.90;;;;;;5019736;28;20473;-82
2022/10/16 07:03:41;;;;;;;5.57;1.60;;;12.70;99.90;;;;;;5018468;28;20045;-81
2022/10/16 07:06:09;;;;;;;4.90;1.60;;;12.70;99.90;;;;;;5021089;28;20102;-81
2022/10/16 07:08:37;;;;;;;6.38;1.75;;;12.70;99.90;;;;;;5020133;28;20496;-81
2022/10/16 07:11:05;;;;;;;3.80;1.50;;;12.80;99.90;;;;;;5002789;28;20127;-82
2022/10/16 07:13:42;;;;;;;6.75;2.03;;;12.90;99.90;;;;;;5019613;28;20049;-81
2022/10/16 07:16:08;;;;;;;6.57;2.20;;;12.90;99.90;;;;;;5020105;28;20045;-81
2022/10/16 07:18:35;;;;;;;5.15;1.48;;;12.90;99.90;;;;;;5020270;28;20050;-81
2022/10/16 07:21:29;;;;;;;6.47;1.77;;;13.50;99.90;;;;;;5020277;28;20133;-82
2022/10/16 07:23:56;;;;;;;5.47;1.70;;;13.00;99.90;;;;;;5009080;28;20046;-82
2022/10/16 07:26:24;;;;;;;5.38;1.58;;;12.90;99.90;;;;;;5021195;28;20042;-81
2022/10/16 07:28:50;;;;;;;7.40;1.80;;;12.90;99.90;;;;;;4994312;28;20050;-82
2022/10/16 07:31:20;;;;;;;7.18;1.67;;;13.00;99.90;;;;;;5019450;28;20128;-81
2022/10/16 07:33:47;;;;;;;6.47;1.60;;;14.00;99.90;;;;;;5020262;28;20073;-81
2022/10/16 07:36:14;;;;;;;5.32;1.60;;;13.00;99.90;;;;;;5005566;28;20202;-81
2022/10/16 07:38:42;;;;;;;9.80;1.70;;;13.00;99.90;;;;;;5019684;28;20064;-81
2022/10/16 07:41:10;;;;;;;4.93;1.80;;;13.00;99.90;;;;;;5020258;28;20110;-81
2022/10/16 07:43:36;;;;;;;5.28;1.80;;;13.00;99.90;;;;;;5020752;28;20399;-81
2022/10/16 07:46:02;;;;;;;6.63;1.88;;;13.00;99.90;;;;;;5003564;28;20054;-81
2022/10/16 07:48:30;;;;;;;6.78;1.88;;;13.10;99.90;;;;;;5019389;28;20048;-82
2022/10/16 07:51:08;;;;;;;4.00;1.80;;;13.10;99.90;;;;;;5019805;28;20046;-82
2022/10/16 07:53:34;;;;;;;6.85;1.83;;;13.10;99.90;;;;;;5003697;28;20081;-83
2022/10/16 07:56:01;;;;;;;9.07;2.35;;;13.20;99.90;;;;;;5018037;28;20088;-82
2022/10/16 07:58:27;;;;;;;6.28;1.88;;;13.20;99.90;;;;;;5003963;28;20045;-82
2022/10/16 08:00:54;;;;;;;9.55;2.15;;;13.20;99.90;;;;;;5002295;28;20092;-81
2022/10/16 08:03:19;;;;;;;5.15;1.50;;;13.30;99.90;;;;;;5002257;28;20156;-82
2022/10/16 08:05:45;;;;;;;6.00;1.90;;;13.40;99.90;;;;;;5018818;28;20116;-83
2022/10/16 08:08:16;;;;;;;7.43;1.95;;;13.40;99.90;;;;;;5018069;28;20037;-83
2022/10/16 08:10:42;;;;;;;7.47;2.05;;;13.40;99.90;;;;;;5026709;28;20050;-81
2022/10/16 08:13:08;;;;;;;9.82;2.20;;;13.50;99.90;;;;;;5017345;28;20498;-82
2022/10/16 08:15:33;;;;;;;11.45;2.28;;;13.60;99.90;;;;;;5018316;28;20096;-81
2022/10/16 08:18:04;;;;;;;8.88;2.30;;;13.60;99.90;;;;;;5002489;28;20388;-81
2022/10/16 08:20:31;;;;;;;15.10;2.75;;;13.60;99.90;;;;;;5019399;28;20172;-80
2022/10/16 08:22:57;;;;;;;8.60;2.35;;;13.80;99.90;;;;;;5002729;28;20045;-81
2022/10/16 08:25:24;;;;;;;9.77;2.33;;;13.80;99.90;;;;;;5019190;28;20041;-81
2022/10/16 08:27:50;;;;;;;11.02;2.50;;;13.90;99.90;;;;;;5017264;28;20107;-83
2022/10/16 08:30:18;;;;;;;11.48;2.80;;;14.00;99.90;;;;;;5019297;28;20578;-82
2022/10/16 08:32:46;;;;;;;9.15;2.33;;;14.10;99.90;;;;;;5018902;28;20058;-85
2022/10/16 08:35:13;;;;;;;7.78;2.58;;;14.30;99.90;;;;;;5009079;28;20053;-81
2022/10/16 08:37:39;;;;;;;8.93;2.67;;;14.50;99.90;;;;;;5001627;28;20041;-80
2022/10/16 08:40:13;;;;;;;9.93;2.28;;;14.70;99.90;;;;;;5003540;28;20045;-80
2022/10/16 08:42:57;;;;;;;9.35;2.30;;;14.80;99.90;;;;;;5017422;28;20052;-80
2022/10/16 08:45:30;;;;;;;8.88;2.30;;;14.90;99.90;;;;;;5018485;28;20484;-80
2022/10/16 08:48:09;;;;;;;9.00;1.80;;;15.00;99.90;;;;;;5009837;28;20388;-81
2022/10/16 08:50:39;;;;;;;7.53;1.90;;;15.00;99.90;;;;;;5009365;28;20058;-82
2022/10/16 08:53:08;;;;;;;7.88;1.67;;;15.10;99.90;;;;;;5019386;28;20500;-81
2022/10/16 08:55:38;;;;;;;5.45;1.75;;;15.10;99.90;;;;;;4986763;28;20053;-80
2022/10/16 08:58:16;;;;;;;6.30;1.75;;;15.10;99.90;;;;;;4999034;28;20041;-81
2022/10/16 09:00:46;;;;;;;6.80;1.77;;;15.10;99.90;;;;;;5001496;28;20050;-81
2022/10/16 09:03:40;;;;;;;5.45;1.48;;;15.00;99.90;;;;;;5008478;28;20074;-80
2022/10/16 09:06:10;;;;;;;11.02;2.33;;;15.00;99.90;;;;;;5005255;28;20494;-81
2022/10/16 09:09:13;;;;;;;9.23;2.10;;;15.10;99.90;;;;;;5017283;28;20057;-81
2022/10/16 09:12:14;;;;;;;11.25;2.00;;;15.10;99.90;;;;;;5007213;28;20053;-81
2022/10/16 09:15:02;;;;;;;11.90;2.60;;;15.10;99.90;;;;;;5001247;28;20046;-83
2022/10/16 09:17:42;;;;;;;13.30;3.92;;;14.90;99.90;;;;;;5017266;28;20049;-81
2022/10/16 09:20:19;;;;;;;14.15;3.08;;;14.90;99.90;;;;;;5006205;28;20069;-81
2022/10/16 09:22:45;;;;;;;11.93;2.60;;;14.80;99.90;;;;;;5039428;28;20124;-83
2022/10/16 09:25:17;;;;;;;9.00;2.22;;;14.80;99.90;;;;;;4996467;28;20030;-81
2022/10/16 09:27:47;;;;;;;14.93;3.13;;;14.90;99.90;;;;;;5005773;28;20486;-81
2022/10/16 09:30:18;;;;;;;13.40;2.85;;;14.90;99.90;;;;;;5022728;28;20052;-81
2022/10/16 09:32:47;;;;;;;11.18;2.95;;;15.00;99.90;;;;;;5015829;28;20057;-80
2022/10/16 09:35:31;;;;;;;16.52;3.08;;;14.90;99.90;;;;;;5014920;28;20069;-81
2022/10/16 09:37:59;;;;;;;13.68;2.63;;;14.90;99.90;;;;;;5016646;28;20053;-81
2022/10/16 09:40:36;;;;;;;14.10;2.47;;;14.90;99.90;;;;;;5024908;28;20160;-81
2022/10/16 09:43:24;;;;;;;9.25;2.30;;;14.90;99.90;;;;;;5003741;28;20073;-81
2022/10/16 09:45:58;;;;;;;9.20;2.30;;;14.80;99.90;;;;;;5018201;28;20158;-80
2022/10/16 09:48:27;;;;;;;12.48;2.30;;;14.80;99.90;;;;;;5008580;28;20077;-80
2022/10/16 09:51:00;;;;;;;16.38;2.60;;;14.80;99.90;;;;;;5024595;28;20546;-82
2022/10/16 09:53:39;;;;;;;11.55;2.53;;;14.80;99.90;;;;;;5009289;28;20128;-81
2022/10/16 09:56:06;;;;;;;13.48;2.50;;;14.80;99.90;;;;;;5015419;28;20053;-81
2022/10/16 09:58:33;;;;;;;14.35;2.70;;;14.80;99.90;;;;;;5001672;28;20049;-81
2022/10/16 10:00:59;;;;;;;9.40;1.70;;;14.80;99.90;;;;;;5017024;28;20053;-82
2022/10/16 10:03:31;;;;;;;12.30;3.05;;;14.90;99.90;;;;;;5023170;28;20216;-81
2022/10/16 10:05:56;;;;;;;11.27;2.63;;;14.90;99.90;;;;;;5018150;28;20045;-81
2022/10/16 10:08:22;;;;;;;13.55;2.38;;;14.90;99.90;;;;;;5000113;28;20535;-80
2022/10/16 10:10:48;;;;;;;11.43;2.60;;;14.90;99.90;;;;;;4984687;28;20053;-81
2022/10/16 10:13:24;;;;;;;11.98;2.50;;;14.90;99.90;;;;;;5001754;28;20590;-80
2022/10/16 10:15:55;;;;;;;11.00;2.97;;;14.90;99.90;;;;;;5041559;28;20629;-82
2022/10/16 10:18:23;;;;;;;11.43;2.50;;;15.00;99.90;;;;;;5004188;28;20057;-83
2022/10/16 10:21:05;;;;;;;10.00;2.35;;;15.00;99.90;;;;;;5018951;28;20057;-82
2022/10/16 10:23:31;;;;;;;12.32;2.38;;;15.10;99.90;;;;;;5038389;28;20057;-83
2022/10/16 10:25:57;;;;;;;16.00;2.92;;;15.10;99.90;;;;;;5004680;28;20434;-83
2022/10/16 10:28:41;;;;;;;11.82;2.75;;;15.10;99.90;;;;;;5020193;28;20046;-82
2022/10/16 10:31:32;;;;;;;9.10;1.88;;;15.10;99.90;;;;;;5020544;28;20044;-83
2022/10/16 10:34:11;;;;;;;9.82;2.55;;;15.10;99.90;;;;;;5020527;28;20137;-83
2022/10/16 10:36:39;;;;;;;11.05;2.50;;;15.10;99.90;;;;;;5037117;28;20052;-82
2022/10/16 10:39:20;;;;;;;10.57;2.42;;;15.20;99.90;;;;;;5026297;28;20172;-83
2022/10/16 10:42:12;;;;;;;9.52;2.10;;;15.20;99.90;;;;;;5035357;28;20067;-83
2022/10/16 10:45:11;;;;;;;12.25;2.80;;;15.20;99.90;;;;;;5018960;28;20100;-84
2022/10/16 10:48:14;;;;;;;12.45;2.22;;;15.20;99.90;;;;;;5020761;28;20056;-84
2022/10/16 10:50:47;;;;;;;12.07;2.05;;;15.20;99.90;;;;;;5012135;28;20058;-83
2022/10/16 10:53:44;;;;;;;9.20;2.42;;;15.40;99.90;;;;;;5010336;28;20511;-83
2022/10/16 10:56:25;;;;;;;15.07;2.35;;;16.00;99.90;;;;;;5027239;28;20042;-83
2022/10/16 10:59:20;;;;;;;9.85;2.28;;;17.20;99.90;;;;;;5019945;28;20049;-81
2022/10/16 11:01:58;;;;;;;9.65;2.35;;;18.80;99.90;;;;;;5014557;28;20107;-81
2022/10/16 11:05:00;;;;;;;13.32;2.28;;;19.20;99.90;;;;;;5019700;28;20044;-80
2022/10/16 11:07:34;;;;;;;11.95;2.47;;;19.60;99.90;;;;;;5019279;28;20084;-81
2022/10/16 11:10:15;;;;;;;13.00;2.83;;;20.10;99.90;;;;;;5027057;28;20049;-82
2022/10/16 11:12:49;;;;;;;10.15;2.08;;;20.30;99.90;;;;;;5018960;28;20050;-80
2022/10/16 11:15:20;;;;;;;9.07;2.30;;;20.00;99.90;;;;;;5026922;28;20115;-81
2022/10/16 11:18:13;;;;;;;9.45;2.10;;;19.60;99.90;;;;;;5010129;28;20052;-82
2022/10/16 11:21:04;;;;;;;11.95;2.17;;;18.80;99.90;;;;;;5026691;28;20053;-81
2022/10/16 11:23:42;;;;;;;10.43;2.58;;;18.20;99.90;;;;;;5018850;28;20982;-81
2022/10/16 11:26:16;;;;;;;9.63;1.80;;;17.60;99.90;;;;;;5001577;28;20049;-82
2022/10/16 11:28:47;;;;;;;9.18;2.33;;;17.10;99.90;;;;;;5019182;28;20045;-82
2022/10/16 11:31:24;;;;;;;12.07;2.70;;;16.90;99.90;;;;;;5020731;28;20088;-81
2022/10/16 11:34:15;;;;;;;14.43;2.50;;;17.10;99.90;;;;;;5027373;28;20058;-81
2022/10/16 11:36:58;;;;;;;10.57;2.08;;;17.80;99.90;;;;;;5010995;28;20133;-83
2022/10/16 11:39:46;;;;;;;9.45;2.45;;;18.00;99.90;;;;;;5026252;28;20444;-83
2022/10/16 11:42:54;;;;;;;8.90;1.90;;;19.90;99.90;;;;;;5002017;28;20140;-82
2022/10/16 11:45:30;;;;;;;8.75;1.83;;;20.60;99.90;;;;;;5009560;28;20183;-85
2022/10/16 11:48:37;;;;;;;8.98;2.00;;;21.40;99.90;;;;;;5007368;28;20041;-85
2022/10/16 11:51:48;;;;;;;8.20;1.80;;;21.70;99.90;;;;;;5017288;28;20058;-84
2022/10/16 11:54:25;;;;;;;6.40;1.88;;;22.00;99.90;;;;;;5007696;28;20056;-85
2022/10/16 11:57:07;;;;;;;;;;;;;;;;;;;;;
2022/10/16 11:59:54;;;;;;;10.15;1.90;;;22.00;99.90;;;;;;5020835;28;20064;-85
2022/10/16 12:02:58;;;;;;;9.20;1.85;;;22.20;99.90;;;;;;5012484;28;20102;-84
2022/10/16 12:05:36;;;;;;;7.35;2.10;;;22.50;99.90;;;;;;5001267;28;20050;-85
2022/10/16 12:08:14;;;;;;;7.03;1.67;;;22.60;99.90;;;;;;5021292;28;20049;-84
2022/10/16 12:10:42;;;;;;;7.43;2.15;;;22.40;99.90;;;;;;5043239;28;20049;-85
2022/10/16 12:13:29;;;;;;;7.22;1.88;;;22.70;99.90;;;;;;5040250;28;20038;-82
2022/10/16 12:16:20;;;;;;;9.40;1.85;;;22.80;99.90;;;;;;5018613;28;20042;-85
2022/10/16 12:18:48;;;;;;;7.40;1.77;;;23.00;99.90;;;;;;5018232;28;20053;-84
2022/10/16 12:21:18;;;;;;;8.68;2.08;;;22.90;99.90;;;;;;5027592;28;20072;-84
2022/10/16 12:23:50;;;;;;;11.90;1.63;;;23.10;99.90;;;;;;5008494;28;20070;-84
2022/10/16 12:26:34;;;;;;;11.50;2.42;;;22.90;99.90;;;;;;5022003;28;20112;-84
2022/10/16 12:33:00;;;;;;;8.88;2.15;;;22.70;99.90;;;;;;4961357;28;20106;-83
2022/10/16 12:35:45;;;;;;;10.10;2.25;;;21.90;99.90;;;;;;4963287;28;20134;-85
2022/10/16 12:38:34;;;;;;;7.15;2.10;;;22.20;99.90;;;;;;4968120;28;20050;-84
2022/10/16 12:41:08;;;;;;;11.43;2.40;;;22.00;99.90;;;;;;4964464;28;20412;-84
2022/10/16 12:43:42;;;;;;;11.02;3.17;;;22.10;99.90;;;;;;4972920;28;20483;-84
2022/10/16 12:46:13;;;;;;;9.60;2.63;;;22.10;99.90;;;;;;4975836;28;20050;-84
2022/10/16 12:48:41;;;;;;;7.53;1.73;;;21.80;99.90;;;;;;4976531;28;20057;-84
2022/10/16 12:51:34;;;;;;;8.80;2.00;;;21.60;99.90;;;;;;4975693;28;20053;-85
2022/10/16 12:54:17;;;;;;;6.45;1.90;;;21.30;99.90;;;;;;4976176;28;20057;-84
2022/10/16 12:57:08;;;;;;;8.43;2.22;;;21.30;99.90;;;;;;4969979;28;20050;-84
2022/10/16 12:59:53;;;;;;;5.00;1.63;;;21.20;99.90;;;;;;4951879;28;20061;-85
2022/10/16 13:02:34;;;;;;;10.07;2.50;;;21.10;99.90;;;;;;4974004;28;20588;-86
2022/10/16 13:05:38;;;;;;;7.80;1.90;;;21.00;99.90;;;;;;5010382;28;20038;-84
2022/10/16 13:08:37;;;;;;;9.38;2.28;;;21.10;99.90;;;;;;5022156;28;20551;-85
2022/10/16 13:11:10;;;;;;;8.43;2.20;;;21.20;99.90;;;;;;5021200;28;20053;-85
2022/10/16 13:14:20;;;;;;;9.57;1.90;;;21.00;99.90;;;;;;5027551;28;20808;-85
2022/10/16 13:17:01;;;;;;;9.32;2.30;;;20.60;99.90;;;;;;5019258;28;20057;-85